Accueil
METAR-TAF:

METAR-TAF

Aéroports :

Aéroport international de Yangon

Rangoon, Birmanie

latitude: 16-46N, longitude: 096-10E, altitude: 14 m

Observation

Le bulletin a été fait il y a 30 minutes, à 23:30 UTC
Vent 3 kt de nord
Température 22°C
Humidité 78%
Pression 1015 hPa
Visibilité: 6000 m
brume sèche

METAR: VYYY 212330Z 35003KT 6000 HZ NSC 22/18 Q1015

Heure: 06:30 (00:00 UTC)

Prévision

Le bulletin a été fait il y a 7 heures et 0 minutes, à 17:00 UTC
Prévision valable du 21 à 18 UTC au 22 à 18 UTC
Vent 5 kt de ouest/sud-ouest
Visibilité: 7000 m
Temporairement
du 21 à 18 UTC au 21 à 22 UTC
Vent 6 kt de ouest/sud-ouest
Visibilité: 3000 m
brume
Temporairement
du 21 à 22 UTC au 22 à 02 UTC
Visibilité: 3000 m
brume

TAF: VYYY 211700Z 2118/2218 24005KT 7000 NSC TEMPO 2118/2122 25006KT 3000 BR TEMPO 2122/2202 3000 BR

Observations et prévisions météorologiques de plus de 4000 aéroports (messages METAR et TAF).

Les stations disponibles sont représentées par des disques jaunes et rouges sur la carte.

Passer la souris dessus pour voir le nom de la station.

Cliquer dessus pour voir les observations et prévisions météorologiques.

Pour changer de carte: cliquez sur les boutons verts avec une croix noire pour zoomer, sur le bouton vert avec un tiret pour effectuer un zoom arrière, ou sur les flèches vertes pour les cartes adjacentes.


METAR-TAF: